Terminal Aerodrome Forecast
Issued by NWS Cleveland, OH

Home | Current Version | Previous Version | Graphics & Text | Print | Product List | Glossary On
Versions: 1 2 3 4 5 6 7 8 9 10 11 12 13 14 15 16 17 18 19 20 21 22 23 24 25
000
FTUS41 KCLE 291137
TAFCLE
TAF
KCLE 291137Z 2912/3018 34005KT 2SM BR VCSH OVC005
      TEMPO 2912/2915 4SM BKN010
     FM291500 36006KT P6SM OVC015
     FM292000 01007KT P6SM OVC022
     FM300100 VRB04KT P6SM SCT025
     FM301500 09008KT P6SM OVC100=

USA.gov is the U.S. government's official web portal to all federal, state and local government web resources and services.